sensor_id;sensor_type;location;lat;lon;timestamp;temperature;humidity
47174;DHT22;36730;49.036;9.094;2023-04-06T00:00:48;20.40;38.70
47174;DHT22;36730;49.036;9.094;2023-04-06T00:03:13;20.40;38.70
47174;DHT22;36730;49.036;9.094;2023-04-06T00:05:39;20.40;38.80
47174;DHT22;36730;49.036;9.094;2023-04-06T00:08:05;20.40;38.70
47174;DHT22;36730;49.036;9.094;2023-04-06T00:10:31;20.40;38.70
47174;DHT22;36730;49.036;9.094;2023-04-06T00:12:57;20.40;38.80
47174;DHT22;36730;49.036;9.094;2023-04-06T00:15:23;20.40;38.90
47174;DHT22;36730;49.036;9.094;2023-04-06T00:17:48;20.40;38.90
47174;DHT22;36730;49.036;9.094;2023-04-06T00:20:14;20.40;38.70
47174;DHT22;36730;49.036;9.094;2023-04-06T00:22:40;20.40;38.70
47174;DHT22;36730;49.036;9.094;2023-04-06T00:25:06;20.40;38.70
47174;DHT22;36730;49.036;9.094;2023-04-06T00:27:32;20.30;38.70
47174;DHT22;36730;49.036;9.094;2023-04-06T00:29:57;20.30;38.90
47174;DHT22;36730;49.036;9.094;2023-04-06T00:32:23;20.30;38.70
47174;DHT22;36730;49.036;9.094;2023-04-06T00:34:48;20.30;38.90
47174;DHT22;36730;49.036;9.094;2023-04-06T00:37:13;20.30;38.90
47174;DHT22;36730;49.036;9.094;2023-04-06T00:39:39;20.30;38.80
47174;DHT22;36730;49.036;9.094;2023-04-06T00:42:11;20.30;38.90
47174;DHT22;36730;49.036;9.094;2023-04-06T00:44:42;20.30;38.80
47174;DHT22;36730;49.036;9.094;2023-04-06T00:47:08;20.30;38.90
47174;DHT22;36730;49.036;9.094;2023-04-06T00:49:34;20.30;38.80
47174;DHT22;36730;49.036;9.094;2023-04-06T00:52:00;20.20;38.80
47174;DHT22;36730;49.036;9.094;2023-04-06T00:54:26;20.20;39.00
47174;DHT22;36730;49.036;9.094;2023-04-06T00:56:52;20.20;39.00
47174;DHT22;36730;49.036;9.094;2023-04-06T00:59:17;20.20;39.20
47174;DHT22;36730;49.036;9.094;2023-04-06T01:01:43;20.20;39.10
47174;DHT22;36730;49.036;9.094;2023-04-06T01:04:08;20.20;39.10
47174;DHT22;36730;49.036;9.094;2023-04-06T01:06:34;20.20;39.00
47174;DHT22;36730;49.036;9.094;2023-04-06T01:08:59;20.20;39.20
47174;DHT22;36730;49.036;9.094;2023-04-06T01:11:25;20.20;39.20
47174;DHT22;36730;49.036;9.094;2023-04-06T01:13:51;20.20;39.10
47174;DHT22;36730;49.036;9.094;2023-04-06T01:16:17;20.20;39.30
47174;DHT22;36730;49.036;9.094;2023-04-06T01:18:42;20.10;39.10
47174;DHT22;36730;49.036;9.094;2023-04-06T01:21:08;20.10;39.20
47174;DHT22;36730;49.036;9.094;2023-04-06T01:23:35;20.10;39.10
47174;DHT22;36730;49.036;9.094;2023-04-06T01:26:00;20.10;39.30
47174;DHT22;36730;49.036;9.094;2023-04-06T01:28:26;20.10;39.20
47174;DHT22;36730;49.036;9.094;2023-04-06T01:30:51;20.10;39.30
47174;DHT22;36730;49.036;9.094;2023-04-06T01:33:17;20.10;39.30
47174;DHT22;36730;49.036;9.094;2023-04-06T01:35:42;20.10;39.20
47174;DHT22;36730;49.036;9.094;2023-04-06T01:38:08;20.10;39.30
47174;DHT22;36730;49.036;9.094;2023-04-06T01:40:33;20.10;39.30
47174;DHT22;36730;49.036;9.094;2023-04-06T01:42:59;20.10;39.40
47174;DHT22;36730;49.036;9.094;2023-04-06T01:45:24;20.10;39.40
47174;DHT22;36730;49.036;9.094;2023-04-06T01:47:50;20.00;39.30
47174;DHT22;36730;49.036;9.094;2023-04-06T01:50:16;20.10;39.20
47174;DHT22;36730;49.036;9.094;2023-04-06T01:52:41;20.00;39.30
47174;DHT22;36730;49.036;9.094;2023-04-06T01:55:06;20.00;39.30
47174;DHT22;36730;49.036;9.094;2023-04-06T01:57:32;20.00;39.50
47174;DHT22;36730;49.036;9.094;2023-04-06T01:59:58;20.00;39.30
47174;DHT22;36730;49.036;9.094;2023-04-06T02:02:24;20.00;39.40
47174;DHT22;36730;49.036;9.094;2023-04-06T02:04:49;20.00;39.30
47174;DHT22;36730;49.036;9.094;2023-04-06T02:07:15;20.00;39.40
47174;DHT22;36730;49.036;9.094;2023-04-06T02:09:40;20.00;39.50
47174;DHT22;36730;49.036;9.094;2023-04-06T02:12:06;20.00;39.50
47174;DHT22;36730;49.036;9.094;2023-04-06T02:14:32;20.00;39.50
47174;DHT22;36730;49.036;9.094;2023-04-06T02:16:58;20.00;39.60
47174;DHT22;36730;49.036;9.094;2023-04-06T02:19:23;19.90;39.60
47174;DHT22;36730;49.036;9.094;2023-04-06T02:21:49;20.00;39.60
47174;DHT22;36730;49.036;9.094;2023-04-06T02:24:14;20.00;39.60
47174;DHT22;36730;49.036;9.094;2023-04-06T02:26:40;19.90;39.50
47174;DHT22;36730;49.036;9.094;2023-04-06T02:29:05;19.90;39.70
47174;DHT22;36730;49.036;9.094;2023-04-06T02:31:32;20.00;39.80
47174;DHT22;36730;49.036;9.094;2023-04-06T02:33:57;19.90;39.60
47174;DHT22;36730;49.036;9.094;2023-04-06T02:36:23;19.90;39.60
47174;DHT22;36730;49.036;9.094;2023-04-06T02:38:48;19.90;39.70
47174;DHT22;36730;49.036;9.094;2023-04-06T02:41:14;19.90;39.80
47174;DHT22;36730;49.036;9.094;2023-04-06T02:43:39;19.90;39.70
47174;DHT22;36730;49.036;9.094;2023-04-06T02:46:05;19.90;39.80
47174;DHT22;36730;49.036;9.094;2023-04-06T02:48:30;19.90;39.80
47174;DHT22;36730;49.036;9.094;2023-04-06T02:50:56;19.90;39.80
47174;DHT22;36730;49.036;9.094;2023-04-06T02:53:21;19.90;40.00
47174;DHT22;36730;49.036;9.094;2023-04-06T02:55:47;19.80;39.90
47174;DHT22;36730;49.036;9.094;2023-04-06T02:58:12;19.90;39.90
47174;DHT22;36730;49.036;9.094;2023-04-06T03:00:38;19.90;39.90
47174;DHT22;36730;49.036;9.094;2023-04-06T03:03:03;19.90;39.90
47174;DHT22;36730;49.036;9.094;2023-04-06T03:05:29;19.90;39.90
47174;DHT22;36730;49.036;9.094;2023-04-06T03:07:54;19.90;39.90
47174;DHT22;36730;49.036;9.094;2023-04-06T03:10:20;19.90;40.00
47174;DHT22;36730;49.036;9.094;2023-04-06T03:12:45;19.90;39.90
47174;DHT22;36730;49.036;9.094;2023-04-06T03:15:11;19.90;40.00
47174;DHT22;36730;49.036;9.094;2023-04-06T03:17:36;19.90;40.00
47174;DHT22;36730;49.036;9.094;2023-04-06T03:20:02;19.90;40.00
47174;DHT22;36730;49.036;9.094;2023-04-06T03:22:28;19.90;40.00
47174;DHT22;36730;49.036;9.094;2023-04-06T03:24:54;19.90;40.10
47174;DHT22;36730;49.036;9.094;2023-04-06T03:27:19;19.90;40.00
47174;DHT22;36730;49.036;9.094;2023-04-06T03:29:45;19.90;39.90
47174;DHT22;36730;49.036;9.094;2023-04-06T03:32:11;19.90;39.90
47174;DHT22;36730;49.036;9.094;2023-04-06T03:34:36;19.90;39.90
47174;DHT22;36730;49.036;9.094;2023-04-06T03:37:02;20.00;40.00
47174;DHT22;36730;49.036;9.094;2023-04-06T03:39:27;20.00;40.00
47174;DHT22;36730;49.036;9.094;2023-04-06T03:41:53;20.00;40.00
47174;DHT22;36730;49.036;9.094;2023-04-06T03:44:18;20.00;40.00
47174;DHT22;36730;49.036;9.094;2023-04-06T03:46:44;20.00;40.10
47174;DHT22;36730;49.036;9.094;2023-04-06T03:49:09;20.00;40.20
47174;DHT22;36730;49.036;9.094;2023-04-06T03:51:35;20.10;41.00
47174;DHT22;36730;49.036;9.094;2023-04-06T03:54:00;20.10;40.40
47174;DHT22;36730;49.036;9.094;2023-04-06T03:56:25;20.10;40.30
47174;DHT22;36730;49.036;9.094;2023-04-06T03:58:51;20.10;40.50
47174;DHT22;36730;49.036;9.094;2023-04-06T04:01:17;20.10;40.50
47174;DHT22;36730;49.036;9.094;2023-04-06T04:03:43;20.10;40.70
47174;DHT22;36730;49.036;9.094;2023-04-06T04:06:09;20.10;40.70
47174;DHT22;36730;49.036;9.094;2023-04-06T04:08:34;20.10;40.70
47174;DHT22;36730;49.036;9.094;2023-04-06T04:11:00;20.20;40.80
47174;DHT22;36730;49.036;9.094;2023-04-06T04:13:26;20.20;40.80
47174;DHT22;36730;49.036;9.094;2023-04-06T04:15:51;20.20;41.00
47174;DHT22;36730;49.036;9.094;2023-04-06T04:18:18;20.20;41.00
47174;DHT22;36730;49.036;9.094;2023-04-06T04:20:43;20.20;41.50
47174;DHT22;36730;49.036;9.094;2023-04-06T04:23:09;20.20;41.80
47174;DHT22;36730;49.036;9.094;2023-04-06T04:25:35;20.20;41.20
47174;DHT22;36730;49.036;9.094;2023-04-06T04:28:00;20.20;41.20
47174;DHT22;36730;49.036;9.094;2023-04-06T04:30:26;20.30;41.40
47174;DHT22;36730;49.036;9.094;2023-04-06T04:32:51;20.30;42.00
47174;DHT22;36730;49.036;9.094;2023-04-06T04:35:17;20.30;41.90
47174;DHT22;36730;49.036;9.094;2023-04-06T04:37:42;20.20;42.20
47174;DHT22;36730;49.036;9.094;2023-04-06T04:40:08;20.30;42.20
47174;DHT22;36730;49.036;9.094;2023-04-06T04:42:34;20.30;42.10
47174;DHT22;36730;49.036;9.094;2023-04-06T04:44:59;20.30;42.30
47174;DHT22;36730;49.036;9.094;2023-04-06T04:47:25;20.30;42.50
47174;DHT22;36730;49.036;9.094;2023-04-06T04:49:50;20.40;42.60
47174;DHT22;36730;49.036;9.094;2023-04-06T04:52:16;20.40;42.60
47174;DHT22;36730;49.036;9.094;2023-04-06T04:54:41;20.30;42.60
47174;DHT22;36730;49.036;9.094;2023-04-06T04:57:07;20.40;42.60
47174;DHT22;36730;49.036;9.094;2023-04-06T04:59:34;20.40;42.90
47174;DHT22;36730;49.036;9.094;2023-04-06T05:01:59;20.40;42.90
47174;DHT22;36730;49.036;9.094;2023-04-06T05:04:25;20.40;42.80
47174;DHT22;36730;49.036;9.094;2023-04-06T05:06:50;20.50;42.90
47174;DHT22;36730;49.036;9.094;2023-04-06T05:09:16;20.50;42.80
47174;DHT22;36730;49.036;9.094;2023-04-06T05:11:42;20.50;43.00
47174;DHT22;36730;49.036;9.094;2023-04-06T05:14:08;20.50;43.60
47174;DHT22;36730;49.036;9.094;2023-04-06T05:16:33;20.50;43.60
47174;DHT22;36730;49.036;9.094;2023-04-06T05:18:59;20.50;43.30
47174;DHT22;36730;49.036;9.094;2023-04-06T05:21:24;20.50;43.50
47174;DHT22;36730;49.036;9.094;2023-04-06T05:23:51;20.50;43.70
47174;DHT22;36730;49.036;9.094;2023-04-06T05:26:17;20.50;43.70
47174;DHT22;36730;49.036;9.094;2023-04-06T05:28:42;20.60;43.90
47174;DHT22;36730;49.036;9.094;2023-04-06T05:31:09;20.60;43.50
47174;DHT22;36730;49.036;9.094;2023-04-06T05:33:35;20.60;44.20
47174;DHT22;36730;49.036;9.094;2023-04-06T05:36:00;20.60;44.10
47174;DHT22;36730;49.036;9.094;2023-04-06T05:38:26;20.70;44.90
47174;DHT22;36730;49.036;9.094;2023-04-06T05:40:51;20.70;44.10
47174;DHT22;36730;49.036;9.094;2023-04-06T05:43:17;20.60;44.10
47174;DHT22;36730;49.036;9.094;2023-04-06T05:45:45;20.70;44.00
47174;DHT22;36730;49.036;9.094;2023-04-06T05:48:11;20.70;44.10
47174;DHT22;36730;49.036;9.094;2023-04-06T05:50:36;20.70;44.20
47174;DHT22;36730;49.036;9.094;2023-04-06T05:53:02;20.70;44.70
47174;DHT22;36730;49.036;9.094;2023-04-06T05:55:27;20.80;44.10
47174;DHT22;36730;49.036;9.094;2023-04-06T05:57:53;20.80;44.30
47174;DHT22;36730;49.036;9.094;2023-04-06T06:00:18;20.80;44.60
47174;DHT22;36730;49.036;9.094;2023-04-06T06:02:44;20.80;44.70
47174;DHT22;36730;49.036;9.094;2023-04-06T06:05:10;20.80;44.50
47174;DHT22;36730;49.036;9.094;2023-04-06T06:07:36;20.80;44.60
47174;DHT22;36730;49.036;9.094;2023-04-06T06:10:01;20.90;44.50
47174;DHT22;36730;49.036;9.094;2023-04-06T06:12:27;20.90;45.50
47174;DHT22;36730;49.036;9.094;2023-04-06T06:14:53;20.90;44.70
47174;DHT22;36730;49.036;9.094;2023-04-06T06:17:19;20.90;44.90
47174;DHT22;36730;49.036;9.094;2023-04-06T06:19:44;20.90;44.90
47174;DHT22;36730;49.036;9.094;2023-04-06T06:22:10;21.00;44.90
47174;DHT22;36730;49.036;9.094;2023-04-06T06:24:35;21.00;44.70
47174;DHT22;36730;49.036;9.094;2023-04-06T06:27:01;21.00;44.70
47174;DHT22;36730;49.036;9.094;2023-04-06T06:29:26;21.00;45.30
47174;DHT22;36730;49.036;9.094;2023-04-06T06:31:52;21.00;44.90
47174;DHT22;36730;49.036;9.094;2023-04-06T06:34:17;21.00;45.10
47174;DHT22;36730;49.036;9.094;2023-04-06T06:36:43;21.00;45.10
47174;DHT22;36730;49.036;9.094;2023-04-06T06:39:08;21.00;45.30
47174;DHT22;36730;49.036;9.094;2023-04-06T06:41:34;21.10;45.50
47174;DHT22;36730;49.036;9.094;2023-04-06T06:43:59;21.10;45.20
47174;DHT22;36730;49.036;9.094;2023-04-06T06:46:25;21.10;45.30
47174;DHT22;36730;49.036;9.094;2023-04-06T06:48:50;21.10;45.50
47174;DHT22;36730;49.036;9.094;2023-04-06T06:51:16;21.10;45.90
47174;DHT22;36730;49.036;9.094;2023-04-06T06:53:41;21.10;46.20
47174;DHT22;36730;49.036;9.094;2023-04-06T06:56:07;21.10;46.30
47174;DHT22;36730;49.036;9.094;2023-04-06T06:58:32;21.20;46.40
47174;DHT22;36730;49.036;9.094;2023-04-06T07:00:58;21.20;46.40
47174;DHT22;36730;49.036;9.094;2023-04-06T07:03:24;21.20;46.30
47174;DHT22;36730;49.036;9.094;2023-04-06T07:05:49;21.20;46.30
47174;DHT22;36730;49.036;9.094;2023-04-06T07:08:21;21.20;46.70
47174;DHT22;36730;49.036;9.094;2023-04-06T07:10:47;21.30;46.50
47174;DHT22;36730;49.036;9.094;2023-04-06T07:13:13;21.30;45.50
47174;DHT22;36730;49.036;9.094;2023-04-06T07:15:44;21.30;46.10
47174;DHT22;36730;49.036;9.094;2023-04-06T07:18:09;21.30;46.90
47174;DHT22;36730;49.036;9.094;2023-04-06T07:20:35;21.30;46.50
47174;DHT22;36730;49.036;9.094;2023-04-06T07:23:00;21.30;46.50
47174;DHT22;36730;49.036;9.094;2023-04-06T07:25:27;21.30;46.50
47174;DHT22;36730;49.036;9.094;2023-04-06T07:27:53;21.30;46.40
47174;DHT22;36730;49.036;9.094;2023-04-06T07:30:18;21.40;46.50
47174;DHT22;36730;49.036;9.094;2023-04-06T07:32:44;21.40;46.60
47174;DHT22;36730;49.036;9.094;2023-04-06T07:35:10;21.40;46.90
47174;DHT22;36730;49.036;9.094;2023-04-06T07:37:36;21.50;47.40
47174;DHT22;36730;49.036;9.094;2023-04-06T07:40:01;21.50;47.60
47174;DHT22;36730;49.036;9.094;2023-04-06T07:42:27;21.50;47.40
47174;DHT22;36730;49.036;9.094;2023-04-06T07:44:52;21.60;47.10
47174;DHT22;36730;49.036;9.094;2023-04-06T07:47:18;21.60;47.10
47174;DHT22;36730;49.036;9.094;2023-04-06T07:49:43;21.60;47.30
47174;DHT22;36730;49.036;9.094;2023-04-06T07:52:09;21.60;47.70
47174;DHT22;36730;49.036;9.094;2023-04-06T07:54:34;21.60;47.50
47174;DHT22;36730;49.036;9.094;2023-04-06T07:57:00;21.70;48.00
47174;DHT22;36730;49.036;9.094;2023-04-06T07:59:25;21.70;47.90
47174;DHT22;36730;49.036;9.094;2023-04-06T08:01:51;21.70;48.00
47174;DHT22;36730;49.036;9.094;2023-04-06T08:04:16;21.80;47.70
47174;DHT22;36730;49.036;9.094;2023-04-06T08:06:42;21.80;47.60
47174;DHT22;36730;49.036;9.094;2023-04-06T08:09:07;21.90;47.90
47174;DHT22;36730;49.036;9.094;2023-04-06T08:11:33;21.90;48.00
47174;DHT22;36730;49.036;9.094;2023-04-06T08:14:01;21.90;48.20
47174;DHT22;36730;49.036;9.094;2023-04-06T08:16:26;22.00;48.30
47174;DHT22;36730;49.036;9.094;2023-04-06T08:18:52;22.00;48.30
47174;DHT22;36730;49.036;9.094;2023-04-06T08:21:17;22.00;48.30
47174;DHT22;36730;49.036;9.094;2023-04-06T08:23:43;22.00;47.70
47174;DHT22;36730;49.036;9.094;2023-04-06T08:26:08;22.10;47.70
47174;DHT22;36730;49.036;9.094;2023-04-06T08:28:34;22.10;48.00
47174;DHT22;36730;49.036;9.094;2023-04-06T08:31:04;22.10;48.00
47174;DHT22;36730;49.036;9.094;2023-04-06T08:33:30;22.20;48.10
47174;DHT22;36730;49.036;9.094;2023-04-06T08:35:56;22.20;48.00
47174;DHT22;36730;49.036;9.094;2023-04-06T08:38:21;22.20;48.10
47174;DHT22;36730;49.036;9.094;2023-04-06T08:40:49;22.30;48.10
47174;DHT22;36730;49.036;9.094;2023-04-06T08:43:16;22.30;48.10
47174;DHT22;36730;49.036;9.094;2023-04-06T08:45:44;22.30;47.80
47174;DHT22;36730;49.036;9.094;2023-04-06T08:48:11;22.30;48.20
47174;DHT22;36730;49.036;9.094;2023-04-06T08:50:38;22.40;48.20
47174;DHT22;36730;49.036;9.094;2023-04-06T08:53:03;22.40;47.90
47174;DHT22;36730;49.036;9.094;2023-04-06T08:55:31;22.40;48.10
47174;DHT22;36730;49.036;9.094;2023-04-06T08:57:56;22.50;48.90
47174;DHT22;36730;49.036;9.094;2023-04-06T09:00:22;22.50;48.60
47174;DHT22;36730;49.036;9.094;2023-04-06T09:02:49;22.60;48.80
47174;DHT22;36730;49.036;9.094;2023-04-06T09:05:14;22.60;48.50
47174;DHT22;36730;49.036;9.094;2023-04-06T09:07:40;22.70;48.70
47174;DHT22;36730;49.036;9.094;2023-04-06T09:10:06;22.70;48.50
47174;DHT22;36730;49.036;9.094;2023-04-06T09:12:31;22.70;49.00
47174;DHT22;36730;49.036;9.094;2023-04-06T09:14:57;22.80;48.90
47174;DHT22;36730;49.036;9.094;2023-04-06T09:17:24;22.80;48.70
47174;DHT22;36730;49.036;9.094;2023-04-06T09:19:50;22.90;48.40
47174;DHT22;36730;49.036;9.094;2023-04-06T09:22:16;22.90;47.90
47174;DHT22;36730;49.036;9.094;2023-04-06T09:24:45;22.80;46.90
47174;DHT22;36730;49.036;9.094;2023-04-06T09:27:11;22.80;45.50
47174;DHT22;36730;49.036;9.094;2023-04-06T09:29:37;22.90;45.20
47174;DHT22;36730;49.036;9.094;2023-04-06T09:32:03;22.90;46.10
47174;DHT22;36730;49.036;9.094;2023-04-06T09:34:32;22.90;46.90
47174;DHT22;36730;49.036;9.094;2023-04-06T09:36:57;23.00;46.80
47174;DHT22;36730;49.036;9.094;2023-04-06T09:39:23;23.00;46.90
47174;DHT22;36730;49.036;9.094;2023-04-06T09:41:50;23.10;47.10
47174;DHT22;36730;49.036;9.094;2023-04-06T09:44:16;23.10;46.70
47174;DHT22;36730;49.036;9.094;2023-04-06T09:46:42;23.10;46.90
47174;DHT22;36730;49.036;9.094;2023-04-06T09:49:08;23.20;46.80
47174;DHT22;36730;49.036;9.094;2023-04-06T09:51:37;23.20;46.90
47174;DHT22;36730;49.036;9.094;2023-04-06T09:54:03;23.30;47.20
47174;DHT22;36730;49.036;9.094;2023-04-06T09:56:54;23.30;44.70
47174;DHT22;36730;49.036;9.094;2023-04-06T10:00:02;23.30;45.30
47174;DHT22;36730;49.036;9.094;2023-04-06T10:02:01;23.40;45.20
47174;DHT22;36730;49.036;9.094;2023-04-06T10:04:49;23.40;46.00
47174;DHT22;36730;49.036;9.094;2023-04-06T10:07:17;23.50;46.40
47174;DHT22;36730;49.036;9.094;2023-04-06T10:09:43;23.50;46.90
47174;DHT22;36730;49.036;9.094;2023-04-06T10:12:10;23.60;46.10
47174;DHT22;36730;49.036;9.094;2023-04-06T10:14:36;23.60;46.40
47174;DHT22;36730;49.036;9.094;2023-04-06T10:17:06;23.60;46.10
47174;DHT22;36730;49.036;9.094;2023-04-06T10:19:49;23.70;46.80
47174;DHT22;36730;49.036;9.094;2023-04-06T10:22:18;23.70;46.10
47174;DHT22;36730;49.036;9.094;2023-04-06T10:24:46;23.80;46.10
47174;DHT22;36730;49.036;9.094;2023-04-06T10:27:11;23.80;45.80
47174;DHT22;36730;49.036;9.094;2023-04-06T10:29:43;23.80;45.80
47174;DHT22;36730;49.036;9.094;2023-04-06T10:32:10;23.90;45.30
47174;DHT22;36730;49.036;9.094;2023-04-06T10:34:35;23.90;45.00
47174;DHT22;36730;49.036;9.094;2023-04-06T10:37:11;24.00;45.20
47174;DHT22;36730;49.036;9.094;2023-04-06T10:39:44;24.00;45.20
47174;DHT22;36730;49.036;9.094;2023-04-06T10:42:10;24.10;45.50
47174;DHT22;36730;49.036;9.094;2023-04-06T10:44:41;24.10;45.60
47174;DHT22;36730;49.036;9.094;2023-04-06T10:47:15;24.10;45.20
47174;DHT22;36730;49.036;9.094;2023-04-06T10:49:40;24.20;45.30
47174;DHT22;36730;49.036;9.094;2023-04-06T10:52:06;24.20;45.10
47174;DHT22;36730;49.036;9.094;2023-04-06T10:54:31;24.30;45.10
47174;DHT22;36730;49.036;9.094;2023-04-06T10:56:58;24.30;45.40
47174;DHT22;36730;49.036;9.094;2023-04-06T10:59:23;24.30;45.10
47174;DHT22;36730;49.036;9.094;2023-04-06T11:01:50;24.40;45.40
47174;DHT22;36730;49.036;9.094;2023-04-06T11:04:19;24.40;45.00
47174;DHT22;36730;49.036;9.094;2023-04-06T11:06:48;24.40;45.00
47174;DHT22;36730;49.036;9.094;2023-04-06T11:09:31;24.40;45.10
47174;DHT22;36730;49.036;9.094;2023-04-06T11:11:57;24.50;45.00
47174;DHT22;36730;49.036;9.094;2023-04-06T11:14:23;24.60;45.00
47174;DHT22;36730;49.036;9.094;2023-04-06T11:16:48;24.60;44.90
47174;DHT22;36730;49.036;9.094;2023-04-06T11:19:17;24.60;44.90
47174;DHT22;36730;49.036;9.094;2023-04-06T11:21:43;24.60;44.80
47174;DHT22;36730;49.036;9.094;2023-04-06T11:24:13;24.70;44.80
47174;DHT22;36730;49.036;9.094;2023-04-06T11:26:39;24.70;44.70
47174;DHT22;36730;49.036;9.094;2023-04-06T11:29:05;24.70;45.20
47174;DHT22;36730;49.036;9.094;2023-04-06T11:31:31;24.80;44.60
47174;DHT22;36730;49.036;9.094;2023-04-06T11:33:57;24.80;44.70
47174;DHT22;36730;49.036;9.094;2023-04-06T11:36:22;24.80;45.20
47174;DHT22;36730;49.036;9.094;2023-04-06T11:38:48;24.80;44.80
47174;DHT22;36730;49.036;9.094;2023-04-06T11:41:14;24.90;44.50
47174;DHT22;36730;49.036;9.094;2023-04-06T11:43:45;24.90;44.40
47174;DHT22;36730;49.036;9.094;2023-04-06T11:46:16;24.90;44.50
47174;DHT22;36730;49.036;9.094;2023-04-06T11:48:45;24.90;44.50
47174;DHT22;36730;49.036;9.094;2023-04-06T11:51:11;25.00;44.60
47174;DHT22;36730;49.036;9.094;2023-04-06T11:53:45;25.00;45.00
47174;DHT22;36730;49.036;9.094;2023-04-06T11:56:11;25.10;44.80
47174;DHT22;36730;49.036;9.094;2023-04-06T11:58:36;25.10;44.50
47174;DHT22;36730;49.036;9.094;2023-04-06T12:01:05;25.10;44.40
47174;DHT22;36730;49.036;9.094;2023-04-06T12:03:30;25.10;44.40
47174;DHT22;36730;49.036;9.094;2023-04-06T12:05:56;25.20;44.50
47174;DHT22;36730;49.036;9.094;2023-04-06T12:08:21;25.20;45.00
47174;DHT22;36730;49.036;9.094;2023-04-06T12:10:50;25.20;45.00
47174;DHT22;36730;49.036;9.094;2023-04-06T12:13:16;25.30;44.50
47174;DHT22;36730;49.036;9.094;2023-04-06T12:15:41;25.30;44.50
47174;DHT22;36730;49.036;9.094;2023-04-06T12:18:07;25.30;44.90
47174;DHT22;36730;49.036;9.094;2023-04-06T12:20:32;25.30;44.60
47174;DHT22;36730;49.036;9.094;2023-04-06T12:22:58;25.40;44.30
47174;DHT22;36730;49.036;9.094;2023-04-06T12:25:23;25.40;44.40
47174;DHT22;36730;49.036;9.094;2023-04-06T12:27:49;25.40;44.90
47174;DHT22;36730;49.036;9.094;2023-04-06T12:30:15;25.40;44.50
47174;DHT22;36730;49.036;9.094;2023-04-06T12:32:40;25.40;44.50
47174;DHT22;36730;49.036;9.094;2023-04-06T12:35:06;25.40;44.30
47174;DHT22;36730;49.036;9.094;2023-04-06T12:37:34;25.40;44.20
47174;DHT22;36730;49.036;9.094;2023-04-06T12:39:59;25.50;44.20
47174;DHT22;36730;49.036;9.094;2023-04-06T12:42:25;25.50;44.20
47174;DHT22;36730;49.036;9.094;2023-04-06T12:44:51;25.50;42.90
47174;DHT22;36730;49.036;9.094;2023-04-06T12:47:17;25.60;44.00
47174;DHT22;36730;49.036;9.094;2023-04-06T12:49:43;25.60;43.80
47174;DHT22;36730;49.036;9.094;2023-04-06T12:52:09;25.60;43.80
47174;DHT22;36730;49.036;9.094;2023-04-06T12:54:34;25.60;43.90
47174;DHT22;36730;49.036;9.094;2023-04-06T12:57:00;25.60;43.80
47174;DHT22;36730;49.036;9.094;2023-04-06T12:59:26;25.70;43.60
47174;DHT22;36730;49.036;9.094;2023-04-06T13:01:52;25.70;43.60
47174;DHT22;36730;49.036;9.094;2023-04-06T13:04:18;25.70;43.70
47174;DHT22;36730;49.036;9.094;2023-04-06T13:06:43;25.70;43.50
47174;DHT22;36730;49.036;9.094;2023-04-06T13:09:08;25.70;43.40
47174;DHT22;36730;49.036;9.094;2023-04-06T13:11:34;25.70;43.30
47174;DHT22;36730;49.036;9.094;2023-04-06T13:13:59;25.70;43.40
47174;DHT22;36730;49.036;9.094;2023-04-06T13:16:25;25.80;43.40
47174;DHT22;36730;49.036;9.094;2023-04-06T13:18:51;25.80;43.30
47174;DHT22;36730;49.036;9.094;2023-04-06T13:21:16;25.80;43.30
47174;DHT22;36730;49.036;9.094;2023-04-06T13:23:42;25.80;43.40
47174;DHT22;36730;49.036;9.094;2023-04-06T13:26:07;25.80;42.10
47174;DHT22;36730;49.036;9.094;2023-04-06T13:28:34;25.80;42.40
47174;DHT22;36730;49.036;9.094;2023-04-06T13:31:00;25.80;41.70
47174;DHT22;36730;49.036;9.094;2023-04-06T13:33:26;25.80;41.40
47174;DHT22;36730;49.036;9.094;2023-04-06T13:35:52;25.80;41.50
47174;DHT22;36730;49.036;9.094;2023-04-06T13:38:17;25.80;41.70
47174;DHT22;36730;49.036;9.094;2023-04-06T13:40:43;25.80;41.10
47174;DHT22;36730;49.036;9.094;2023-04-06T13:43:09;25.80;41.20
47174;DHT22;36730;49.036;9.094;2023-04-06T13:45:34;25.80;40.80
47174;DHT22;36730;49.036;9.094;2023-04-06T13:48:00;25.80;41.40
47174;DHT22;36730;49.036;9.094;2023-04-06T13:50:26;25.80;40.40
47174;DHT22;36730;49.036;9.094;2023-04-06T13:52:51;25.80;40.80
47174;DHT22;36730;49.036;9.094;2023-04-06T13:55:17;25.80;40.30
47174;DHT22;36730;49.036;9.094;2023-04-06T13:57:42;25.80;40.30
47174;DHT22;36730;49.036;9.094;2023-04-06T14:00:08;25.80;40.20
47174;DHT22;36730;49.036;9.094;2023-04-06T14:02:35;25.70;39.90
47174;DHT22;36730;49.036;9.094;2023-04-06T14:05:01;25.70;40.70
47174;DHT22;36730;49.036;9.094;2023-04-06T14:07:26;25.70;40.00
47174;DHT22;36730;49.036;9.094;2023-04-06T14:09:52;25.70;40.00
47174;DHT22;36730;49.036;9.094;2023-04-06T14:12:17;25.70;40.30
47174;DHT22;36730;49.036;9.094;2023-04-06T14:14:43;25.70;40.20
47174;DHT22;36730;49.036;9.094;2023-04-06T14:17:08;25.70;40.20
47174;DHT22;36730;49.036;9.094;2023-04-06T14:19:34;25.70;40.40
47174;DHT22;36730;49.036;9.094;2023-04-06T14:22:01;25.70;39.70
47174;DHT22;36730;49.036;9.094;2023-04-06T14:24:26;25.70;39.70
47174;DHT22;36730;49.036;9.094;2023-04-06T14:26:52;25.60;39.50
47174;DHT22;36730;49.036;9.094;2023-04-06T14:29:17;25.60;39.70
47174;DHT22;36730;49.036;9.094;2023-04-06T14:31:44;25.60;39.80
47174;DHT22;36730;49.036;9.094;2023-04-06T14:34:10;25.50;39.20
47174;DHT22;36730;49.036;9.094;2023-04-06T14:36:36;25.50;39.40
47174;DHT22;36730;49.036;9.094;2023-04-06T14:39:03;25.50;38.90
47174;DHT22;36730;49.036;9.094;2023-04-06T14:41:30;25.50;39.00
47174;DHT22;36730;49.036;9.094;2023-04-06T14:43:56;25.50;39.00
47174;DHT22;36730;49.036;9.094;2023-04-06T14:46:21;25.50;38.90
47174;DHT22;36730;49.036;9.094;2023-04-06T14:48:47;25.40;38.50
47174;DHT22;36730;49.036;9.094;2023-04-06T14:51:13;25.40;38.90
47174;DHT22;36730;49.036;9.094;2023-04-06T14:53:38;25.40;38.90
47174;DHT22;36730;49.036;9.094;2023-04-06T14:56:04;25.40;38.40
47174;DHT22;36730;49.036;9.094;2023-04-06T14:58:30;25.40;38.40
47174;DHT22;36730;49.036;9.094;2023-04-06T15:00:56;25.30;38.30
47174;DHT22;36730;49.036;9.094;2023-04-06T15:03:22;25.30;38.10
47174;DHT22;36730;49.036;9.094;2023-04-06T15:05:50;25.30;38.10
47174;DHT22;36730;49.036;9.094;2023-04-06T15:08:15;25.20;38.20
47174;DHT22;36730;49.036;9.094;2023-04-06T15:10:42;25.20;38.00
47174;DHT22;36730;49.036;9.094;2023-04-06T15:13:07;25.20;38.50
47174;DHT22;36730;49.036;9.094;2023-04-06T15:15:33;25.20;37.80
47174;DHT22;36730;49.036;9.094;2023-04-06T15:17:58;25.20;37.70
47174;DHT22;36730;49.036;9.094;2023-04-06T15:20:27;25.20;37.60
47174;DHT22;36730;49.036;9.094;2023-04-06T15:22:52;25.10;37.60